createdAt,value
2023-05-23T06:46:25.719Z,30.32
2023-05-23T06:49:02.646Z,31.54
2023-05-23T06:51:40.915Z,31.71
2023-05-23T06:54:09.804Z,31.90
2023-05-23T06:56:37.942Z,32.07
2023-05-23T06:59:05.242Z,32.30
2023-05-23T07:01:34.306Z,32.40
2023-05-23T07:04:01.399Z,32.31
2023-05-23T07:06:28.632Z,32.41
2023-05-23T07:08:55.595Z,32.61
2023-05-23T07:11:22.644Z,32.80
2023-05-23T07:13:53.863Z,32.96
2023-05-23T07:16:26.976Z,33.14
2023-05-23T07:19:02.589Z,33.38
2023-05-23T07:21:30.665Z,33.53
2023-05-23T07:23:57.433Z,33.45
2023-05-23T07:26:24.672Z,33.38
2023-05-23T07:28:54.795Z,33.25
2023-05-23T07:31:22.680Z,33.02
2023-05-23T07:33:55.719Z,32.73
2023-05-23T07:36:27.184Z,32.41
2023-05-23T07:38:54.332Z,32.13
2023-05-23T07:41:21.699Z,32.13
2023-05-23T07:43:48.971Z,32.25
2023-05-23T07:46:16.796Z,32.23
2023-05-23T07:48:44.610Z,31.99
2023-05-23T07:51:12.660Z,31.77
2023-05-23T07:53:40.300Z,31.81
2023-05-23T07:56:11.140Z,31.90
2023-05-23T07:58:39.321Z,32.17
2023-05-23T08:01:06.368Z,32.57
2023-05-23T08:03:52.006Z,32.92
2023-05-23T08:06:23.901Z,33.24
2023-05-23T08:08:51.355Z,33.63
2023-05-23T08:11:18.124Z,34.12
2023-05-23T08:13:49.048Z,34.62
2023-05-23T08:16:48.807Z,35.03
2023-05-23T08:19:19.302Z,35.34
2023-05-23T08:21:46.737Z,35.70
2023-05-23T08:24:14.911Z,36.05
2023-05-23T08:26:43.052Z,36.35
2023-05-23T08:29:11.362Z,36.61
2023-05-23T08:31:38.526Z,36.85
2023-05-23T08:34:06.585Z,37.05
2023-05-23T08:36:36.087Z,37.17
2023-05-23T08:39:03.442Z,37.30
2023-05-23T08:41:35.322Z,37.43
2023-05-23T08:44:04.635Z,37.52
2023-05-23T08:46:39.366Z,37.63
2023-05-23T08:49:06.478Z,37.73
2023-05-23T08:51:33.604Z,37.75
2023-05-23T08:54:01.943Z,37.70
2023-05-23T08:56:29.766Z,37.68
2023-05-23T08:58:57.860Z,37.76
2023-05-23T09:01:25.036Z,37.87
2023-05-23T09:03:52.879Z,38.03
2023-05-23T09:06:34.271Z,38.23
2023-05-23T09:09:01.138Z,38.41
2023-05-23T09:11:28.531Z,38.58
2023-05-23T09:13:57.114Z,38.66
2023-05-23T09:16:23.872Z,38.71
2023-05-23T09:18:56.105Z,38.59
2023-05-23T09:21:23.881Z,38.52
2023-05-23T09:23:56.095Z,38.43
2023-05-23T09:26:22.980Z,38.35
2023-05-23T09:28:50.214Z,38.40
2023-05-23T09:31:16.989Z,38.45
2023-05-23T09:33:49.420Z,38.51
2023-05-23T09:36:17.924Z,38.57
2023-05-23T09:38:45.843Z,38.63
2023-05-23T09:41:13.248Z,38.50
2023-05-23T09:43:49.408Z,38.40
2023-05-23T09:46:16.175Z,38.41
2023-05-23T09:48:51.653Z,38.51
2023-05-23T09:51:20.726Z,38.58
2023-05-23T09:53:47.813Z,38.67
2023-05-23T09:56:16.315Z,38.84
2023-05-23T09:58:52.256Z,38.95
2023-05-23T10:01:18.940Z,39.04
2023-05-23T10:03:50.413Z,39.16
2023-05-23T10:06:32.073Z,39.23
2023-05-23T10:09:03.496Z,39.13
2023-05-23T10:11:36.052Z,38.62
2023-05-23T10:14:07.109Z,37.77
2023-05-23T10:16:39.321Z,36.80
2023-05-23T10:19:09.635Z,35.97
2023-05-23T10:21:40.464Z,35.58
2023-05-23T10:24:07.341Z,35.60
2023-05-23T10:26:34.086Z,35.78
2023-05-23T10:29:01.131Z,35.99
2023-05-23T10:31:28.590Z,36.02
2023-05-23T10:34:19.193Z,35.76
2023-05-23T10:36:55.819Z,35.37
2023-05-23T10:39:43.823Z,35.12
2023-05-23T10:42:17.563Z,34.69
2023-05-23T10:44:44.200Z,34.24
2023-05-23T10:47:12.343Z,34.03
2023-05-23T10:49:43.134Z,33.93
2023-05-23T10:52:12.769Z,33.88
2023-05-23T10:54:43.885Z,33.87
2023-05-23T10:57:12.208Z,33.83
2023-05-23T10:59:39.333Z,33.75
2023-05-23T11:02:13.936Z,33.68
2023-05-23T11:04:40.736Z,33.64
2023-05-23T11:07:37.676Z,33.67
2023-05-23T11:10:09.136Z,33.55
2023-05-23T11:12:43.206Z,33.30
2023-05-23T11:15:16.186Z,32.86
2023-05-23T11:17:53.756Z,32.30
2023-05-23T11:20:27.853Z,31.82
2023-05-23T11:23:07.014Z,31.38
2023-05-23T11:25:44.472Z,30.97
2023-05-23T11:28:12.106Z,30.66
2023-05-23T11:30:39.408Z,30.29
2023-05-23T11:33:15.762Z,30.10
2023-05-23T11:35:47.231Z,30.21
2023-05-23T11:38:14.643Z,30.43
2023-05-23T11:40:42.903Z,30.59
2023-05-23T11:43:14.946Z,30.74
2023-05-23T11:45:42.181Z,30.85
2023-05-23T11:48:09.289Z,30.85
2023-05-23T11:51:00.502Z,30.73
2023-05-23T11:53:27.316Z,30.66
2023-05-23T11:55:55.329Z,30.70
2023-05-23T11:58:22.426Z,30.76
2023-05-23T12:00:49.166Z,30.79
2023-05-23T12:03:16.065Z,30.76
2023-05-23T12:05:44.467Z,30.73
2023-05-23T12:08:13.225Z,30.65
2023-05-23T12:10:49.314Z,30.55
2023-05-23T12:13:16.696Z,30.55
2023-05-23T12:15:43.892Z,30.57
2023-05-23T12:18:10.942Z,30.56
2023-05-23T12:20:37.530Z,30.52
2023-05-23T12:23:05.494Z,30.49
2023-05-23T12:25:42.263Z,30.48
2023-05-23T12:28:12.982Z,30.47
2023-05-23T12:30:43.107Z,30.43
2023-05-23T12:33:11.217Z,30.38
2023-05-23T12:35:42.464Z,30.34
2023-05-23T12:38:09.705Z,30.32
2023-05-23T12:40:36.667Z,30.24
2023-05-23T12:43:03.502Z,30.13
2023-05-23T12:45:32.408Z,30.07
2023-05-23T12:47:59.891Z,30.09
2023-05-23T12:50:26.810Z,30.15
2023-05-23T12:52:53.823Z,30.16
2023-05-23T12:55:20.528Z,30.17
2023-05-23T12:57:47.602Z,30.17
2023-05-23T13:00:14.559Z,30.20
2023-05-23T13:02:41.670Z,30.17
2023-05-23T13:09:59.139Z,29.85
2023-05-23T13:12:25.906Z,29.66
2023-05-23T13:14:52.712Z,29.54
2023-05-23T13:17:19.458Z,29.49
2023-05-23T13:19:46.506Z,29.41
2023-05-23T13:22:13.163Z,29.33
2023-05-23T13:24:40.224Z,29.29
2023-05-23T13:27:07.097Z,29.24
2023-05-23T13:29:33.881Z,29.21
2023-05-23T13:32:00.874Z,29.13
2023-05-23T13:34:28.187Z,29.04
2023-05-23T13:36:56.816Z,28.95
2023-05-23T13:39:24.017Z,28.87
2023-05-23T13:41:51.097Z,28.84
2023-05-23T13:44:18.910Z,28.77
2023-05-23T13:46:45.674Z,28.66
2023-05-23T13:49:13.028Z,28.60
2023-05-23T13:51:39.703Z,28.55
2023-05-23T13:54:06.557Z,28.48
2023-05-23T13:56:34.726Z,28.36
2023-05-23T13:59:01.687Z,28.23
2023-05-23T14:01:28.943Z,28.12
2023-05-23T14:03:55.944Z,28.07
2023-05-23T14:06:22.725Z,28.02
2023-05-23T14:08:49.494Z,27.98
2023-05-23T14:11:16.769Z,27.96
2023-05-23T14:13:43.706Z,27.91
2023-05-23T14:16:10.497Z,27.77
2023-05-23T14:18:37.309Z,27.58
2023-05-23T14:21:04.041Z,27.31
2023-05-23T14:23:31.341Z,27.06
2023-05-23T14:25:58.173Z,26.88
2023-05-23T14:28:24.836Z,26.79
2023-05-23T14:30:51.652Z,26.78
2023-05-23T14:33:19.410Z,26.79
2023-05-23T14:35:48.694Z,26.84
2023-05-23T14:38:18.195Z,26.89
2023-05-23T14:40:48.320Z,26.89
2023-05-23T14:43:19.031Z,26.89
2023-05-23T14:45:48.521Z,26.86
2023-05-23T14:48:17.990Z,26.82
2023-05-23T14:50:46.154Z,26.73
2023-05-23T14:53:16.582Z,26.57
2023-05-23T14:55:45.654Z,26.40
2023-05-23T14:58:14.416Z,26.24
2023-05-23T15:00:46.628Z,26.09
2023-05-23T15:03:15.655Z,25.95
2023-05-23T15:05:48.207Z,25.82
2023-05-23T15:08:18.650Z,25.71
2023-05-23T15:10:48.021Z,25.64
2023-05-23T15:13:18.603Z,25.60
2023-05-23T15:15:48.697Z,25.53
2023-05-23T15:18:27.940Z,25.42
2023-05-23T15:21:05.294Z,25.31
2023-05-23T15:23:34.525Z,25.23
2023-05-23T15:26:03.671Z,25.17
2023-05-23T15:28:34.666Z,25.13
2023-05-23T15:31:03.612Z,25.10
2023-05-23T15:33:32.616Z,25.06
2023-05-23T15:42:19.516Z,25.06
2023-05-23T15:44:46.322Z,25.05
2023-05-23T15:47:12.957Z,25.03
2023-05-23T15:49:39.983Z,25.01
2023-05-23T15:52:06.723Z,24.97
2023-05-23T15:54:33.671Z,24.92
2023-05-23T15:57:01.026Z,24.87
2023-05-23T15:59:27.581Z,24.81
2023-05-23T16:01:54.256Z,24.76
2023-05-23T16:04:22.847Z,24.68
2023-05-23T16:06:50.231Z,24.58
2023-05-23T16:09:17.093Z,24.50
2023-05-23T16:11:44.017Z,24.42
2023-05-23T16:14:10.767Z,24.36
2023-05-23T16:16:37.779Z,24.29
2023-05-23T16:19:04.870Z,24.22
2023-05-23T16:21:32.107Z,24.16
2023-05-23T16:23:58.848Z,24.11
2023-05-23T16:26:26.411Z,24.02
2023-05-23T16:28:53.552Z,23.95
2023-05-23T16:31:28.021Z,23.89
2023-05-23T16:33:55.033Z,23.83
2023-05-23T16:36:22.784Z,23.75
2023-05-23T16:38:49.625Z,23.69
2023-05-23T16:41:16.373Z,23.63
2023-05-23T16:43:43.127Z,23.57
2023-05-23T16:46:10.234Z,23.50
2023-05-23T16:48:37.226Z,23.40
2023-05-23T16:51:04.148Z,23.30
2023-05-23T16:53:30.818Z,23.19
2023-05-23T16:55:59.980Z,23.08
2023-05-23T16:58:26.643Z,23.02
2023-05-23T17:00:56.032Z,22.95
2023-05-23T17:03:23.886Z,22.87
2023-05-23T17:05:50.937Z,22.80
2023-05-23T17:08:17.816Z,22.69
2023-05-23T17:10:44.638Z,22.58
2023-05-23T17:13:11.780Z,22.48
2023-05-23T17:15:38.595Z,22.38
2023-05-23T17:18:05.650Z,22.28
2023-05-23T17:20:33.212Z,22.17
2023-05-23T17:23:00.067Z,22.08
2023-05-23T17:25:27.098Z,21.98
2023-05-23T17:27:55.304Z,21.89
2023-05-23T17:30:22.215Z,21.80
2023-05-23T17:32:49.215Z,21.71
2023-05-23T17:35:15.935Z,21.63
2023-05-23T17:37:44.312Z,21.55
2023-05-23T17:40:11.615Z,21.47
2023-05-23T17:42:39.813Z,21.39
2023-05-23T17:45:08.832Z,21.32
2023-05-23T17:47:35.781Z,21.26
2023-05-23T17:50:04.027Z,21.20
2023-05-23T17:52:32.055Z,21.12
2023-05-23T17:54:58.971Z,21.03
2023-05-23T17:57:29.558Z,20.94
2023-05-23T17:59:57.136Z,20.83
2023-05-23T18:02:24.107Z,20.74
2023-05-23T18:04:51.225Z,20.63
2023-05-23T18:07:18.491Z,20.53
2023-05-23T18:09:46.645Z,20.42
2023-05-23T18:12:14.188Z,20.30
2023-05-23T18:14:41.863Z,20.16
2023-05-23T18:17:09.385Z,20.01
2023-05-23T18:19:38.599Z,19.88
2023-05-23T18:22:07.301Z,19.73
2023-05-23T18:24:34.259Z,19.61
2023-05-23T18:27:02.402Z,19.50
2023-05-23T18:29:29.704Z,19.38
2023-05-23T18:31:56.360Z,19.29
2023-05-23T18:34:23.159Z,19.21
2023-05-23T18:36:50.096Z,19.15
2023-05-23T18:39:18.394Z,19.09
2023-05-23T18:41:46.140Z,19.02
2023-05-23T18:44:18.645Z,18.94
2023-05-23T18:46:47.367Z,18.88
2023-05-23T18:49:14.144Z,18.84
2023-05-23T18:51:44.186Z,18.79
2023-05-23T18:54:11.009Z,18.74
2023-05-23T18:56:37.851Z,18.70
2023-05-23T18:59:04.698Z,18.66
2023-05-23T19:01:31.532Z,18.62
2023-05-23T19:03:58.708Z,18.59
2023-05-23T19:06:27.260Z,18.56
2023-05-23T19:08:53.950Z,18.53
2023-05-23T19:11:21.457Z,18.50
2023-05-23T19:13:48.130Z,18.47
2023-05-23T19:16:16.762Z,18.42
2023-05-23T19:18:43.934Z,18.38
2023-05-23T19:21:10.776Z,18.36
2023-05-23T19:23:37.641Z,18.35
2023-05-23T19:26:04.475Z,18.34
2023-05-23T19:28:31.704Z,18.32
2023-05-23T19:30:58.369Z,18.33
2023-05-23T19:33:25.085Z,18.34
2023-05-23T19:35:52.682Z,18.37
2023-05-23T19:38:20.713Z,18.39
2023-05-23T19:40:47.799Z,18.42
2023-05-23T19:43:14.736Z,18.45
2023-05-23T19:45:41.603Z,18.48
2023-05-23T19:48:08.339Z,18.49
2023-05-23T19:50:35.087Z,18.50
2023-05-23T19:53:01.948Z,18.49
2023-05-23T19:55:29.029Z,18.46
2023-05-23T19:57:55.776Z,18.44
2023-05-23T20:00:22.686Z,18.41
2023-05-23T20:02:50.213Z,18.37
2023-05-23T20:05:17.201Z,18.34
2023-05-23T20:07:44.407Z,18.31
2023-05-23T20:10:11.383Z,18.28
2023-05-23T20:12:38.165Z,18.25
2023-05-23T20:15:05.670Z,18.24
2023-05-23T20:17:32.690Z,18.21
2023-05-23T20:19:59.293Z,18.18
2023-05-23T20:22:26.432Z,18.16
2023-05-23T20:24:53.169Z,18.13
2023-05-23T20:27:20.322Z,18.10
2023-05-23T20:29:47.190Z,18.07
2023-05-23T20:32:13.908Z,18.03
2023-05-23T20:34:41.270Z,18.00
2023-05-23T20:37:08.102Z,17.98
2023-05-23T20:39:37.094Z,17.94
2023-05-23T20:42:05.164Z,17.92
2023-05-23T20:44:32.316Z,17.89
2023-05-23T20:47:00.374Z,17.85
2023-05-23T20:49:27.127Z,17.83
2023-05-23T20:51:53.884Z,17.81
2023-05-23T20:54:20.603Z,17.78
2023-05-23T20:56:47.884Z,17.75
2023-05-23T20:59:15.927Z,17.72
2023-05-23T21:01:42.689Z,17.68
2023-05-23T21:04:09.658Z,17.64
2023-05-23T21:06:37.898Z,17.59
2023-05-23T21:09:04.639Z,17.55
2023-05-23T21:11:33.517Z,17.51
2023-05-23T21:14:00.476Z,17.47
2023-05-23T21:16:31.893Z,17.41
2023-05-23T21:19:00.130Z,17.37
2023-05-23T21:21:27.031Z,17.34
2023-05-23T21:23:53.771Z,17.31
2023-05-23T21:26:20.607Z,17.28
2023-05-23T21:28:48.228Z,17.26
2023-05-23T21:31:16.375Z,17.24
2023-05-23T21:33:46.865Z,17.19
2023-05-23T21:36:13.509Z,17.12
2023-05-23T21:38:40.276Z,17.04
2023-05-23T21:41:07.235Z,17.00
2023-05-23T21:43:34.035Z,16.99
2023-05-23T21:46:00.694Z,16.98
2023-05-23T21:48:27.397Z,16.97
2023-05-23T21:50:54.083Z,16.94
2023-05-23T21:53:22.147Z,16.90
2023-05-23T21:55:49.065Z,16.86
2023-05-23T21:58:15.958Z,16.84
2023-05-23T22:00:45.481Z,16.82
2023-05-23T22:03:12.179Z,16.80
2023-05-23T22:05:40.026Z,16.77
2023-05-23T22:08:07.320Z,16.76
2023-05-23T22:10:37.354Z,16.74
2023-05-23T22:13:04.223Z,16.70
2023-05-23T22:15:31.988Z,16.66
2023-05-23T22:17:59.025Z,16.63
2023-05-23T22:20:27.428Z,16.62
2023-05-23T22:22:54.149Z,16.60
2023-05-23T22:25:22.540Z,16.57
2023-05-23T22:27:49.424Z,16.55
2023-05-23T22:30:16.532Z,16.52
2023-05-23T22:32:43.424Z,16.48
2023-05-23T22:35:10.593Z,16.45
2023-05-23T22:37:37.590Z,16.41
2023-05-23T22:40:05.547Z,16.38
2023-05-23T22:42:32.625Z,16.36
2023-05-23T22:45:01.737Z,16.34
2023-05-23T22:47:28.978Z,16.30
2023-05-23T22:50:00.286Z,16.25
2023-05-23T22:52:27.946Z,16.19
2023-05-23T22:54:54.701Z,16.15
2023-05-23T22:57:21.627Z,16.10
2023-05-23T22:59:48.290Z,16.05
2023-05-23T23:02:15.325Z,16.01
2023-05-23T23:04:43.813Z,15.98
2023-05-23T23:07:10.918Z,15.93
2023-05-23T23:09:38.832Z,15.90
2023-05-23T23:12:05.883Z,15.87
2023-05-23T23:14:32.526Z,15.85
2023-05-23T23:16:59.272Z,15.83
2023-05-23T23:19:29.145Z,15.80
2023-05-23T23:21:56.120Z,15.78
2023-05-23T23:24:22.701Z,15.77
2023-05-23T23:26:49.297Z,15.75
2023-05-23T23:29:15.862Z,15.74
2023-05-23T23:31:42.606Z,15.71
2023-05-23T23:34:09.087Z,15.68
2023-05-23T23:36:39.076Z,15.66
2023-05-23T23:39:05.860Z,15.65
2023-05-23T23:41:32.950Z,15.62
2023-05-23T23:43:59.429Z,15.61
2023-05-23T23:46:26.296Z,15.57
2023-05-23T23:48:55.605Z,15.52
2023-05-23T23:51:22.214Z,15.48
2023-05-23T23:53:50.904Z,15.45
2023-05-23T23:56:19.345Z,15.44
2023-05-23T23:58:45.912Z,15.40
